AREA preflight bulletin
Updated "live" 18 Jun 2018, 14:52

back to the map




METAR og TAF


THULE (MIL)
  AKTUEL
  TAF 24 timer BGTL 180105Z 1801/1907 15012G20KT 9999 SCT020 BKN030 QNH2942INS TEMPO 1801/1907 15015G30KT 520005 WND 060V150 TX03/1817Z TN00/1807Z LAST NO AMDS AFT 1802 NEXT 1810=

QAANAAQ
  AKTUEL BGQQ 181450Z 29007KT 9999 SCT020 BKN061 02/M00 Q0996 RMK 4SC 7SC =
  TAF 9 timer BGQQ 181202Z 1812/1820 VRB05KT 9999 FEW015 BKN050 TEMPO 1812/1820 6000 RASN FEW004 BKN012=

UPERNAVIK
  AKTUEL BGUK 181450Z 22011KT 9999 BKN050 BKN120 04/01 Q1001=
  TAF 9 timer BGUK 181202Z 1812/1821 20015KT 9999 SCT035 BKN100 TEMPO 1812/1815 BKN035 BECMG 1812/1815 18025KT TEMPO 1815/1821 18022G32KT BKN035=

ILULISSAT
  SPECI(AL) BGJN 181415Z 34003KT 9999 1200W VCFG FEW001 SCT220 04/M00 Q1004 RMK 1ST 3CI FOG ALONG COASTLINE=
  AKTUEL BGJN 181350Z 30004KT 250V340 9999 FEW001 SCT220 03/01 Q1005 RMK 1SC 3CI =
  TAF 9 timer BGJN 181414Z 1815/1823 33005KT 9999 FEW002 SCT200 PROB40 1815/1817 5000 BCFG TEMPO 1817/1823 BKN035=

KANGERLUSSUAQ
  AKTUEL BGSF 181450Z AUTO VRB04KT 9999NDV NCD 14/02 Q1003=
  TAF 24 timer BGSF 181102Z 1812/1918 VRB07KT 9999 SCT075 TEMPO 1812/1824 BKN050=


SIGMETS:

Ingen SIGMET fundet:

NOTAM/SNOWTAM for operationel use has to be confirmed with the
nearest AIS Briefing Office prior to a flight.

ICAO
BGTL (THULE (MIL))

FIR
BGGL

Notam_id:
BGA0202/18

valid from:
1806041130

E) ILS OUT OF SERVICE.

valid to:
1806291900




ICAO
BGTL (THULE (MIL))

FIR
BGGL

Notam_id:
BGA0184/18

valid from:
1805081756

E) TEMPORARY PRECISION APPROACH PATH INDICATOR OUT OF SERVICE. REF. GREENLAND AIP AD2 BGTL-14.

valid to:
1807232000


Replacing:
BGA0161/18

ICAO
BGTL (THULE (MIL))

FIR
BGGL

Notam_id:
BGA0197/18

valid from:
1807190000

E) TRIGGER NOTAM - PERM AIP AIRAC AMDT 07/18 WEF 19 JUL 2018. CHANGES TO REMARKS IN OPERATIONAL HOURS AND METEOROLOGICAL INFORMATION PROVIDED.

valid to:
1808012359




ICAO
BGQQ (QAANAAQ)

FIR
BGGL

Notam_id:
BGB0775/17

valid from:
1710101723

E) SEA RESCUE SERVICE NOT AVAIABLE.

valid to:
1807161200




ICAO
BGUK (UPERNAVIK)

FIR
BGGL

Notam_id:
BGB0393/18

valid from:
1805241919

E) OBST LIGHT ANEMOMETER THR 05 U/S.

valid to:
1808011400EST


Replacing:
BGB0390/18

ICAO
BGUK (UPERNAVIK)

FIR
BGGL

Notam_id:
BGB0443/18

valid from:
1806081037

E) SEA RESCUE SERVICE NOT AVBL.

valid to:
1806221400EST


Replacing:
BGB0406/18

ICAO
BGGL (SONDRESTROM FIR)

FIR
BGGL

Notam_id:
BGA0200/18

valid from:
1806010451

E) CHECKLIST YEAR=2017 0269 YEAR=2018 0102 0106 0107 0108 0128 0177 0182 0183 0184 0197 0198 0199 LATEST PUBLICATIONS AIP AIRAC AMDT IFR 007/2018 EFFECTIVE DATE 19 JUL 18 AIP AMDT IFR 003/2018 EFFECTIVE DATE 15 MAR 18 AIP SUP IFR 004/2018 EFFECTIVE DATE 03 MAY 18 AIC IFR A002/2018 EFFECTIVE DATE 13 FEB 18

valid to:
1807010451EST


Replacing:
BGA0176/18

ICAO
BGGL (SONDRESTROM FIR)

FIR
BGGL

Notam_id:
BGB0407/18

valid from:
1806010452

E) CHECKLIST YEAR=2017 0740 0775 0901 0902 0913 0918 0930 YEAR=2018 0002 0245 0266 0326 0334 0338 0339 0340 0346 0350 0361 0362 0363 0364 0384 0392 0393 0401 0402 0404 0405 0406 LATEST PUBLICATIONS AIP AIRAC AMDT IFR 007/2018 EFFECTIVE DATE 19 JUL 18 AIP AMDT IFR 003/2018 EFFECTIVE DATE 15 MAR 18 AIP SUP IFR 004/2018 EFFECTIVE DATE 03 MAY 18 AIC IFR A002/2018 EFFECTIVE DATE 13 FEB 18

valid to:
1807010452EST


Replacing:
BGB0341/18

ICAO
BGGL (SONDRESTROM FIR)

FIR
BGGL

Notam_id:
BGC0045/18

valid from:
1806010452

E) CHECKLIST YEAR=2017 0055 0056 0077 YEAR=2018 0014 0032 0037 0041 0042 LATEST PUBLICATIONS AIP AIRAC AMDT IFR 007/2018 EFFECTIVE DATE 19 JUL 18 AIP AMDT IFR 003/2018 EFFECTIVE DATE 15 MAR 18 AIP SUP IFR 004/2018 EFFECTIVE DATE 03 MAY 18 AIC IFR A002/2018 EFFECTIVE DATE 13 FEB 18

valid to:
1807010452EST


Replacing:
BGC0038/18

ICAO
BGGL (SONDRESTROM FIR)

FIR
BGGL

Notam_id:
BGA0177/18

valid from:
1806210000

E) TRIGGER NOTAM - PERM AIP AIRAC AMDT 06/18 WEF 21 JUN 2018. VARIATION UPDATED FOR ATS ROUTE W20.

valid to:
1807042359




ICAO
BGGL (SONDRESTROM FIR)

FIR
BGGL

Notam_id:
BGB0350/18

valid from:
1805160800

D) DAILY 0800-2200


E) TEMPORARY RESTRICTED AREA DUE TO DRONE ACTIVITY IS ACTIVE. REF AIP SUP 04/18 PUBLISHED 03 MAY 2018. LATERAL LIMITS: 753531N0361504W 753859N0355013W 753238N0353637W 752918N0360004W NO TRAFFIC PERMITTED IN THE AREA. F) SFC G) 12500FT AMSL

valid to:
1808092200




ICAO
BGGL (SONDRESTROM FIR)

FIR
BGGL

Notam_id:
BGB0425/18

valid from:
1806050800

E) TRIGGER NOTAM - AIP SUP 05/18 - WEF 01 JUN 2018. TEMPORARY RESTRICTED AREA ATTU. F) SFC G) 2500FT AMSL

valid to:
1806190759




ICAO
BGGL (SONDRESTROM FIR)

FIR
BGGL

Notam_id:
BGA0199/18

valid from:
1805310935

E) GREENLAND AND ADJACENT WATERS ARE CONSIDERED HOSTILE AREAS BY THE CIVIL AVIATION AUTHORITY (TBST). THREE MAJOR REASONS CONTRIBUTE TO DEFINING THE AREA AS HOSTILE: A SAFE FORCED LANDING CANNOT BE ACCOMPLISHED BECAUSE THE SURFACE IS INADEQUATE. THE HELICOPTER OCCUPANTS CANNOT BE ADEQUATELY PROTECTED FROM THE ELEMENTS. SEARCH AND RESCUE RESPONSE/CAPABILITY ARE NOT PROVIDED CONSISTENT WITH ANTICIPATED EXPOSURE.

valid to:
PERM




ICAO
BGJN (ILULISSAT)

FIR
BGGL

Notam_id:
BGB0448/18

valid from:
1806110850

E) EVERY SECOND APCH LIGHT OUT OF SERVICE RWY 07/25.

valid to:
1806301900




ICAO
BGJN (ILULISSAT)

FIR
BGGL

Notam_id:
BGB0473/18

valid from:
1806141755

E) REF. AIP GREENLAND - AD 2 - BGJN - 4 PT. 18. REMARKS ARE NO LONGER VALID AND WILL BE DELETED.

valid to:
PERM


Replacing:
BGB0472/18

ICAO
BGJN (ILULISSAT)

FIR
BGGL

Notam_id:
BGB0436/18

valid from:
1806071304

E) AIP GREENLAND ENR 6.7-3 CHART WITHDRAWN (20 OCT 11).

valid to:
PERM




ICAO
BGSF (KANGERLUSSUAQ)

FIR
BGGL

Notam_id:
BGA0213/18

valid from:
1806091652

E) PAPI LIGHTS ARE SET ON 10 PERCENT INTENSITY. 20 MINUTES PRIOR NOTICE REQUIRED TO CHANGE SETTING.

valid to:
1809101800EST


Replacing:
BGA0106/18

ICAO
BGSF (KANGERLUSSUAQ)

FIR
BGGL

Notam_id:
BGA0214/18

valid from:
1806091654

E) APCH LIGHTS ARE SET ON 10 PERCENT INTENSITY. 20 MINUTES PRIOR NOTICE REQUIRED TO CHANGE SETTING.

valid to:
1809101800EST


Replacing:
BGA0107/18

ICAO
BGSF (KANGERLUSSUAQ)

FIR
BGGL

Notam_id:
BGA0215/18

valid from:
1806091655

E) RWY EDGE LIGHTS ARE SET ON 10 PERCENT INTENSITY. 20 MINUTES PRIOR NOTICE REQUIRED TO CHANGE SETTING.

valid to:
1809101800EST


Replacing:
BGA0108/18


Copyright Naviair   2003-2016